createdAt,value
2023-05-23T00:00:19.313Z,8.45
2023-05-23T00:02:49.739Z,9.07
2023-05-23T00:05:18.235Z,8.13
2023-05-23T00:07:46.571Z,8.00
2023-05-23T00:10:15.348Z,8.00
2023-05-23T00:12:43.558Z,8.50
2023-05-23T00:15:12.240Z,7.60
2023-05-23T00:17:40.530Z,8.00
2023-05-23T00:20:12.151Z,8.15
2023-05-23T00:22:43.196Z,7.78
2023-05-23T00:25:11.709Z,7.80
2023-05-23T00:27:39.915Z,7.65
2023-05-23T00:30:09.240Z,7.65
2023-05-23T00:32:38.020Z,8.27
2023-05-23T00:35:07.014Z,8.07
2023-05-23T00:37:36.545Z,7.97
2023-05-23T00:40:05.019Z,8.88
2023-05-23T00:42:33.957Z,8.70
2023-05-23T00:45:02.157Z,9.60
2023-05-23T00:47:30.724Z,8.70
2023-05-23T00:49:59.033Z,8.85
2023-05-23T00:52:27.499Z,8.80
2023-05-23T00:54:57.618Z,8.98
2023-05-23T00:57:25.904Z,8.63
2023-05-23T00:59:54.203Z,8.43
2023-05-23T01:02:22.875Z,8.80
2023-05-23T01:04:54.451Z,9.30
2023-05-23T01:07:22.787Z,9.77
2023-05-23T01:09:51.606Z,8.63
2023-05-23T01:12:30.897Z,8.45
2023-05-23T01:15:06.484Z,9.00
2023-05-23T01:17:42.257Z,9.00
2023-05-23T01:20:14.072Z,8.98
2023-05-23T01:23:01.485Z,9.20
2023-05-23T01:25:48.177Z,9.13
2023-05-23T01:28:20.905Z,9.50
2023-05-23T01:30:52.146Z,9.10
2023-05-23T01:33:23.835Z,9.82
2023-05-23T01:35:52.719Z,9.68
2023-05-23T01:38:20.905Z,9.75
2023-05-23T01:40:49.111Z,8.38
2023-05-23T01:43:18.754Z,8.63
2023-05-23T01:45:47.296Z,9.48
2023-05-23T01:48:16.990Z,8.30
2023-05-23T01:50:46.487Z,8.05
2023-05-23T01:53:16.938Z,9.27
2023-05-23T01:55:45.254Z,7.95
2023-05-23T01:58:13.671Z,8.50
2023-05-23T02:00:43.231Z,9.00
2023-05-23T02:03:11.781Z,9.00
2023-05-23T02:05:40.507Z,9.63
2023-05-23T02:08:08.928Z,9.38
2023-05-23T02:10:37.106Z,9.45
2023-05-23T02:13:05.261Z,9.40
2023-05-23T02:15:33.439Z,10.00
2023-05-23T02:18:03.522Z,10.18
2023-05-23T02:20:31.826Z,9.48
2023-05-23T02:23:00.045Z,10.57
2023-05-23T02:25:28.266Z,9.73
2023-05-23T02:27:56.452Z,10.40
2023-05-23T02:30:24.591Z,10.27
2023-05-23T02:32:53.266Z,10.35
2023-05-23T02:35:23.909Z,11.35
2023-05-23T02:37:52.093Z,10.77
2023-05-23T02:40:20.259Z,9.63
2023-05-23T02:42:48.422Z,10.70
2023-05-23T02:45:16.582Z,10.02
2023-05-23T02:47:44.883Z,10.32
2023-05-23T02:50:13.303Z,11.43
2023-05-23T02:52:44.197Z,10.73
2023-05-23T02:55:12.400Z,11.13
2023-05-23T02:57:40.639Z,11.07
2023-05-23T03:00:11.861Z,11.65
2023-05-23T03:02:40.163Z,12.88
2023-05-23T03:05:09.341Z,11.52
2023-05-23T03:07:38.113Z,11.48
2023-05-23T03:10:11.541Z,11.45
2023-05-23T03:12:39.751Z,12.82
2023-05-23T03:15:08.823Z,10.45
2023-05-23T03:17:37.194Z,11.18
2023-05-23T03:20:09.740Z,10.98
2023-05-23T03:22:38.015Z,11.38
2023-05-23T03:25:08.858Z,11.70
2023-05-23T03:27:37.025Z,10.70
2023-05-23T03:30:06.012Z,11.00
2023-05-23T03:32:34.230Z,12.02
2023-05-23T03:35:02.425Z,11.60
2023-05-23T03:37:30.654Z,12.43
2023-05-23T03:39:58.836Z,12.23
2023-05-23T03:42:29.778Z,12.00
2023-05-23T03:44:57.971Z,12.68
2023-05-23T03:47:26.172Z,11.82
2023-05-23T03:49:54.420Z,13.02
2023-05-23T03:52:22.625Z,13.40
2023-05-23T03:54:50.807Z,14.35
2023-05-23T03:57:19.098Z,11.98
2023-05-23T03:59:48.756Z,12.00
2023-05-23T04:02:17.096Z,11.70
2023-05-23T04:04:45.361Z,12.55
2023-05-23T04:07:14.852Z,13.23
2023-05-23T04:09:43.056Z,13.32
2023-05-23T04:12:12.074Z,14.07
2023-05-23T04:14:40.578Z,14.35
2023-05-23T04:17:10.236Z,14.00
2023-05-23T04:19:38.607Z,13.38
2023-05-23T04:22:07.264Z,12.25
2023-05-23T04:24:35.725Z,13.25
2023-05-23T04:27:03.896Z,13.75
2023-05-23T04:29:33.330Z,11.82
2023-05-23T04:32:01.520Z,11.82
2023-05-23T04:34:33.853Z,12.68
2023-05-23T04:37:02.977Z,11.52
2023-05-23T04:39:31.483Z,13.05
2023-05-23T04:41:59.879Z,11.18
2023-05-23T04:44:30.396Z,10.80
2023-05-23T04:46:58.997Z,11.00
2023-05-23T04:49:27.230Z,10.20
2023-05-23T04:51:56.765Z,9.32
2023-05-23T04:54:24.935Z,10.05
2023-05-23T04:56:53.259Z,10.13
2023-05-23T04:59:21.554Z,10.32
2023-05-23T05:01:49.747Z,11.05
2023-05-23T05:04:18.069Z,10.50
2023-05-23T05:06:48.124Z,9.90
2023-05-23T05:09:17.681Z,10.10
2023-05-23T05:11:46.001Z,9.85
2023-05-23T05:14:14.192Z,10.00
2023-05-23T05:16:42.908Z,9.88
2023-05-23T05:19:11.252Z,8.82
2023-05-23T05:21:39.464Z,9.25
2023-05-23T05:24:09.634Z,9.68
2023-05-23T05:26:39.334Z,9.00
2023-05-23T05:29:07.484Z,9.60
2023-05-23T05:31:36.052Z,9.65
2023-05-23T05:34:04.278Z,8.82
2023-05-23T05:36:32.692Z,8.15
2023-05-23T05:39:00.908Z,8.95
2023-05-23T05:41:29.085Z,8.52
2023-05-23T05:43:58.626Z,7.70
2023-05-23T05:46:26.913Z,7.22
2023-05-23T05:48:55.102Z,8.07
2023-05-23T05:51:23.309Z,7.35
2023-05-23T05:53:51.459Z,6.75
2023-05-23T05:56:19.928Z,6.90
2023-05-23T05:58:48.080Z,6.00
2023-05-23T06:01:17.769Z,6.47
2023-05-23T06:03:46.187Z,6.10
2023-05-23T06:06:14.491Z,6.47
2023-05-23T06:08:43.501Z,5.78
2023-05-23T06:11:12.120Z,5.93
2023-05-23T06:13:40.711Z,5.63
2023-05-23T06:16:08.908Z,5.60
2023-05-23T06:18:38.741Z,5.93
2023-05-23T06:21:07.048Z,5.88
2023-05-23T06:23:35.230Z,5.97
2023-05-23T06:26:03.417Z,5.68
2023-05-23T06:28:31.573Z,6.07
2023-05-23T06:30:59.734Z,5.85
2023-05-23T06:33:27.863Z,6.30
2023-05-23T06:35:57.476Z,5.70
2023-05-23T06:38:28.110Z,5.82
2023-05-23T06:40:56.363Z,5.88
2023-05-23T06:43:24.557Z,5.50
2023-05-23T06:45:53.078Z,5.18
2023-05-23T06:48:21.368Z,5.65
2023-05-23T06:50:49.642Z,5.38
2023-05-23T06:53:19.430Z,5.70
2023-05-23T06:55:47.688Z,5.25
2023-05-23T06:58:16.040Z,4.82
2023-05-23T07:00:44.524Z,5.03
2023-05-23T07:03:12.788Z,5.28
2023-05-23T07:05:41.566Z,5.00
2023-05-23T07:08:11.058Z,5.00
2023-05-23T07:10:41.969Z,4.80
2023-05-23T07:13:10.593Z,4.25
2023-05-23T07:15:38.765Z,4.95
2023-05-23T07:18:07.025Z,3.97
2023-05-23T07:20:35.331Z,4.57
2023-05-23T07:23:03.556Z,4.18
2023-05-23T07:25:31.727Z,3.85
2023-05-23T07:28:01.294Z,4.53
2023-05-23T07:30:31.432Z,4.10
2023-05-23T07:33:01.859Z,4.07
2023-05-23T07:35:30.120Z,3.80
2023-05-23T07:37:58.351Z,3.40
2023-05-23T07:40:26.693Z,3.47
2023-05-23T07:42:55.875Z,2.90
2023-05-23T07:45:25.407Z,3.30
2023-05-23T07:47:54.017Z,3.13
2023-05-23T07:50:22.312Z,3.05
2023-05-23T07:52:51.383Z,2.97
2023-05-23T07:55:19.557Z,2.92
2023-05-23T07:57:47.759Z,2.88
2023-05-23T08:00:16.831Z,2.70
2023-05-23T08:02:46.417Z,2.45
2023-05-23T08:05:14.849Z,2.53
2023-05-23T08:07:43.051Z,2.70
2023-05-23T08:10:11.524Z,2.88
2023-05-23T08:12:39.708Z,2.65
2023-05-23T08:15:09.252Z,2.65
2023-05-23T08:17:37.790Z,3.05
2023-05-23T08:20:10.254Z,3.03
2023-05-23T08:22:38.490Z,3.22
2023-05-23T08:25:07.456Z,2.65
2023-05-23T08:27:36.773Z,3.00
2023-05-23T08:30:06.431Z,2.92
2023-05-23T08:32:34.608Z,3.00
2023-05-23T08:35:03.591Z,2.78
2023-05-23T08:37:33.211Z,2.63
2023-05-23T08:40:01.716Z,3.10
2023-05-23T08:42:30.134Z,2.85
2023-05-23T08:44:58.481Z,3.28
2023-05-23T08:47:27.200Z,2.72
2023-05-23T08:49:56.950Z,3.00
2023-05-23T08:52:28.855Z,3.13
2023-05-23T08:54:58.963Z,2.97
2023-05-23T08:57:27.325Z,3.40
2023-05-23T08:59:56.737Z,3.78
2023-05-23T09:02:25.905Z,3.00
2023-05-23T09:04:54.213Z,3.08
2023-05-23T09:07:22.696Z,2.63
2023-05-23T09:09:50.981Z,2.92
2023-05-23T09:12:22.458Z,2.63
2023-05-23T09:14:50.712Z,2.42
2023-05-23T09:17:20.138Z,2.42
2023-05-23T09:19:48.790Z,2.53
2023-05-23T09:22:16.968Z,2.30
2023-05-23T09:24:45.228Z,2.70
2023-05-23T09:27:13.388Z,2.58
2023-05-23T09:29:43.591Z,2.40
2023-05-23T09:32:15.927Z,2.42
2023-05-23T09:34:44.456Z,2.30
2023-05-23T09:37:19.214Z,2.42
2023-05-23T09:39:49.123Z,2.20
2023-05-23T09:42:22.384Z,2.45
2023-05-23T09:44:52.156Z,2.50
2023-05-23T09:47:20.478Z,2.13
2023-05-23T09:49:49.017Z,2.38
2023-05-23T09:52:20.212Z,2.40
2023-05-23T09:54:48.649Z,2.10
2023-05-23T09:57:18.133Z,2.60
2023-05-23T09:59:55.333Z,2.85
2023-05-23T10:02:54.969Z,2.10
2023-05-23T10:05:34.429Z,2.30
2023-05-23T10:08:07.392Z,2.60
2023-05-23T10:10:36.642Z,2.40
2023-05-23T10:13:06.995Z,2.22
2023-05-23T10:15:41.374Z,2.50
2023-05-23T10:18:17.722Z,2.30
2023-05-23T10:20:50.198Z,2.33
2023-05-23T10:23:19.343Z,2.95
2023-05-23T10:25:47.993Z,2.20
2023-05-23T10:28:17.255Z,2.45
2023-05-23T10:30:48.088Z,2.35
2023-05-23T10:33:17.900Z,2.10
2023-05-23T10:35:55.851Z,2.63
2023-05-23T10:38:34.129Z,2.65
2023-05-23T10:41:10.667Z,2.60
2023-05-23T10:43:50.226Z,2.63
2023-05-23T10:46:21.722Z,2.38
2023-05-23T10:48:55.070Z,2.72
2023-05-23T10:51:24.976Z,2.50
2023-05-23T10:53:55.732Z,2.70
2023-05-23T10:56:25.092Z,2.42
2023-05-23T10:58:55.165Z,2.50
2023-05-23T11:01:25.544Z,2.58
2023-05-23T11:03:55.990Z,2.60
2023-05-23T11:06:33.524Z,2.55
2023-05-23T11:09:07.198Z,3.00
2023-05-23T11:11:55.305Z,2.40
2023-05-23T11:14:33.859Z,2.70
2023-05-23T11:17:17.018Z,2.67
2023-05-23T11:19:59.648Z,2.60
2023-05-23T11:22:31.222Z,2.63
2023-05-23T11:25:00.372Z,2.90
2023-05-23T11:27:29.755Z,2.72
2023-05-23T11:30:03.944Z,2.42
2023-05-23T11:32:33.774Z,2.90
2023-05-23T11:35:02.494Z,2.90
2023-05-23T11:37:31.315Z,2.50
2023-05-23T11:39:59.951Z,2.67
2023-05-23T11:42:28.148Z,2.28
2023-05-23T11:44:56.409Z,2.40
2023-05-23T11:47:24.653Z,2.50
2023-05-23T11:49:54.705Z,3.15
2023-05-23T11:52:22.922Z,2.50
2023-05-23T11:54:53.004Z,2.25
2023-05-23T11:57:23.180Z,2.72
2023-05-23T11:59:52.701Z,2.60
2023-05-23T12:02:22.721Z,2.67
2023-05-23T12:04:51.001Z,2.42
2023-05-23T12:07:22.459Z,3.40
2023-05-23T12:09:50.732Z,3.85
2023-05-23T12:12:20.595Z,2.78
2023-05-23T12:14:48.843Z,2.50
2023-05-23T12:17:17.132Z,2.80
2023-05-23T12:19:48.014Z,2.80
2023-05-23T12:22:16.197Z,2.80
2023-05-23T12:24:48.590Z,2.28
2023-05-23T12:27:18.668Z,2.65
2023-05-23T12:29:52.740Z,2.85
2023-05-23T12:32:20.988Z,2.83
2023-05-23T12:34:50.959Z,4.47
2023-05-23T12:37:20.497Z,2.80
2023-05-23T12:39:50.446Z,2.90
2023-05-23T12:42:18.649Z,2.53
2023-05-23T12:44:48.677Z,2.65
2023-05-23T12:47:16.930Z,2.60
2023-05-23T12:49:47.071Z,2.50
2023-05-23T12:52:15.233Z,2.40
2023-05-23T12:54:43.419Z,2.83
2023-05-23T12:57:13.091Z,2.33
2023-05-23T12:59:41.269Z,2.58
2023-05-23T13:02:09.463Z,2.67
2023-05-23T13:04:37.648Z,2.47
2023-05-23T13:07:06.115Z,2.90
2023-05-23T13:09:34.291Z,2.70
2023-05-23T13:12:02.549Z,2.95
2023-05-23T13:14:32.344Z,2.80
2023-05-23T13:17:00.728Z,2.60
2023-05-23T13:19:29.267Z,3.00
2023-05-23T13:21:57.609Z,3.17
2023-05-23T13:24:25.780Z,2.90
2023-05-23T13:26:54.541Z,2.78
2023-05-23T13:29:22.770Z,2.42
2023-05-23T13:31:53.236Z,2.70
2023-05-23T13:34:21.876Z,2.58
2023-05-23T13:36:50.115Z,2.92
2023-05-23T13:39:19.796Z,3.00
2023-05-23T13:41:48.722Z,2.88
2023-05-23T13:44:16.925Z,3.08
2023-05-23T13:46:45.219Z,2.80
2023-05-23T13:49:14.813Z,3.15
2023-05-23T13:51:43.602Z,3.00
2023-05-23T13:54:11.869Z,3.15
2023-05-23T13:56:40.526Z,3.35
2023-05-23T13:59:08.764Z,3.17
2023-05-23T14:01:36.950Z,3.10
2023-05-23T14:04:07.029Z,2.90
2023-05-23T14:06:36.940Z,3.25
2023-05-23T14:09:05.471Z,2.90
2023-05-23T14:11:33.879Z,3.08
2023-05-23T14:14:02.088Z,2.80
2023-05-23T14:16:30.413Z,2.80
2023-05-23T14:18:58.783Z,2.72
2023-05-23T14:21:28.220Z,2.90
2023-05-23T14:23:57.795Z,3.03
2023-05-23T14:26:26.496Z,3.35
2023-05-23T14:28:54.710Z,3.40
2023-05-23T14:31:23.172Z,4.00
2023-05-23T14:33:51.478Z,3.05
2023-05-23T14:36:19.664Z,2.92
2023-05-23T14:38:47.868Z,2.67
2023-05-23T14:41:17.638Z,3.15
2023-05-23T14:43:46.137Z,2.92
2023-05-23T14:46:15.533Z,2.80
2023-05-23T14:48:43.804Z,3.03
2023-05-23T14:51:20.712Z,3.08
2023-05-23T14:53:55.612Z,2.88
2023-05-23T14:56:27.143Z,2.95
2023-05-23T14:58:57.369Z,3.00
2023-05-23T15:01:25.804Z,3.00
2023-05-23T15:03:54.125Z,2.70
2023-05-23T15:06:22.548Z,3.30
2023-05-23T15:08:50.688Z,3.00
2023-05-23T15:11:19.048Z,3.25
2023-05-23T15:13:48.632Z,2.83
2023-05-23T15:16:18.002Z,3.30
2023-05-23T15:18:46.309Z,3.22
2023-05-23T15:21:14.655Z,2.78
2023-05-23T15:23:42.841Z,3.40
2023-05-23T15:26:11.056Z,3.00
2023-05-23T15:28:39.233Z,3.17
2023-05-23T15:31:08.808Z,3.20
2023-05-23T15:33:36.979Z,2.92
2023-05-23T15:36:05.352Z,2.88
2023-05-23T15:38:33.585Z,2.92
2023-05-23T15:41:02.446Z,3.00
2023-05-23T15:43:31.031Z,2.90
2023-05-23T15:45:59.323Z,3.05
2023-05-23T15:48:29.092Z,3.05
2023-05-23T15:50:57.254Z,3.05
2023-05-23T15:53:25.470Z,2.83
2023-05-23T15:55:53.724Z,3.15
2023-05-23T15:58:21.898Z,3.13
2023-05-23T16:00:50.161Z,3.05
2023-05-23T16:03:18.727Z,3.03
2023-05-23T16:05:48.347Z,3.10
2023-05-23T16:08:16.545Z,2.83
2023-05-23T16:10:44.859Z,3.10
2023-05-23T16:13:13.074Z,3.65
2023-05-23T16:15:41.414Z,3.40
2023-05-23T16:18:09.820Z,2.70
2023-05-23T16:20:38.017Z,6.70
2023-05-23T16:23:07.538Z,3.20
2023-05-23T16:25:35.916Z,2.85
2023-05-23T16:28:04.083Z,2.55
2023-05-23T16:30:32.645Z,2.97
2023-05-23T16:33:01.132Z,3.15
2023-05-23T16:35:29.400Z,3.28
2023-05-23T16:37:57.632Z,3.13
2023-05-23T16:40:27.174Z,3.00
2023-05-23T16:42:55.480Z,3.10
2023-05-23T16:45:23.898Z,3.42
2023-05-23T16:47:52.191Z,3.30
2023-05-23T16:50:20.373Z,3.60
2023-05-23T16:52:48.573Z,3.45
2023-05-23T16:55:17.034Z,3.30
2023-05-23T16:57:46.552Z,3.70
2023-05-23T17:00:15.980Z,3.72
2023-05-23T17:02:44.939Z,4.40
2023-05-23T17:05:16.104Z,3.67
2023-05-23T17:07:44.668Z,4.13
2023-05-23T17:10:12.930Z,3.72
2023-05-23T17:12:41.122Z,3.53
2023-05-23T17:15:12.024Z,3.80
2023-05-23T17:17:40.285Z,3.53
2023-05-23T17:20:10.148Z,4.03
2023-05-23T17:22:38.678Z,4.13
2023-05-23T17:25:07.646Z,4.13
2023-05-23T17:27:35.857Z,4.00
2023-05-23T17:30:05.631Z,4.50
2023-05-23T17:32:35.450Z,4.80
2023-05-23T17:35:03.659Z,4.03
2023-05-23T17:37:31.813Z,4.07
2023-05-23T17:40:00.029Z,4.55
2023-05-23T17:42:28.270Z,4.47
2023-05-23T17:44:56.433Z,4.18
2023-05-23T17:47:24.664Z,4.32
2023-05-23T17:49:54.281Z,5.90
2023-05-23T17:52:22.471Z,4.38
2023-05-23T17:54:50.694Z,4.50
2023-05-23T17:57:19.012Z,4.00
2023-05-23T17:59:47.339Z,4.70
2023-05-23T18:02:15.523Z,3.67
2023-05-23T18:04:44.011Z,4.68
2023-05-23T18:07:15.081Z,4.47
2023-05-23T18:09:43.290Z,4.68
2023-05-23T18:12:11.613Z,4.85
2023-05-23T18:14:40.115Z,4.80
2023-05-23T18:17:09.933Z,4.93
2023-05-23T18:19:38.322Z,4.70
2023-05-23T18:22:06.896Z,4.90
2023-05-23T18:24:36.527Z,5.07
2023-05-23T18:27:05.017Z,4.57
2023-05-23T18:29:33.244Z,5.45
2023-05-23T18:32:01.446Z,5.03
2023-05-23T18:34:29.668Z,5.15
2023-05-23T18:36:57.866Z,5.88
2023-05-23T18:39:28.470Z,5.57
2023-05-23T18:41:58.797Z,5.40
2023-05-23T18:44:27.365Z,5.50
2023-05-23T18:46:55.658Z,6.00
2023-05-23T18:49:23.926Z,6.95
2023-05-23T18:51:54.397Z,5.63
2023-05-23T18:54:22.648Z,6.32
2023-05-23T18:56:50.874Z,5.82
2023-05-23T18:59:20.918Z,6.20
2023-05-23T19:01:49.171Z,6.85
2023-05-23T19:04:18.210Z,6.40
2023-05-23T19:06:49.577Z,6.03
2023-05-23T19:09:17.792Z,5.82
2023-05-23T19:11:45.960Z,6.00
2023-05-23T19:14:14.243Z,6.18
2023-05-23T19:16:43.878Z,6.70
2023-05-23T19:19:14.562Z,6.03
2023-05-23T19:21:42.881Z,6.60
2023-05-23T19:24:11.286Z,5.95
2023-05-23T19:26:42.388Z,7.28
2023-05-23T19:29:11.527Z,7.15
2023-05-23T19:31:40.046Z,6.47
2023-05-23T19:34:09.684Z,6.43
2023-05-23T19:36:38.080Z,6.07
2023-05-23T19:39:07.089Z,7.25
2023-05-23T19:41:35.276Z,6.97
2023-05-23T19:44:03.493Z,6.53
2023-05-23T19:46:31.809Z,7.63
2023-05-23T19:49:00.148Z,6.80
2023-05-23T19:51:30.235Z,6.85
2023-05-23T19:53:58.450Z,6.60
2023-05-23T19:56:27.553Z,6.93
2023-05-23T19:58:55.751Z,7.93
2023-05-23T20:01:24.038Z,7.18
2023-05-23T20:03:52.398Z,7.30
2023-05-23T20:06:20.873Z,7.45
2023-05-23T20:08:50.522Z,7.03
2023-05-23T20:11:18.782Z,6.72
2023-05-23T20:13:47.012Z,7.35
2023-05-23T20:16:15.298Z,6.65
2023-05-23T20:18:47.390Z,7.22
2023-05-23T20:21:15.661Z,7.55
2023-05-23T20:23:45.188Z,7.32
2023-05-23T20:26:14.813Z,7.45
2023-05-23T20:28:42.996Z,7.60
2023-05-23T20:31:11.555Z,7.35
2023-05-23T20:33:39.802Z,7.78
2023-05-23T20:36:09.017Z,7.55
2023-05-23T20:38:37.221Z,7.20
2023-05-23T20:41:07.556Z,7.53
2023-05-23T20:43:38.225Z,7.55
2023-05-23T20:46:06.904Z,7.45
2023-05-23T20:48:35.387Z,7.63
2023-05-23T20:51:05.688Z,7.38
2023-05-23T20:53:33.983Z,7.22
2023-05-23T20:56:02.740Z,7.85
2023-05-23T20:58:31.014Z,7.75
2023-05-23T21:01:00.728Z,7.10
2023-05-23T21:03:29.135Z,7.28
2023-05-23T21:05:57.513Z,7.72
2023-05-23T21:08:25.774Z,7.30
2023-05-23T21:10:54.849Z,7.05
2023-05-23T21:13:23.462Z,7.05
2023-05-23T21:15:51.788Z,7.07
2023-05-23T21:18:22.474Z,6.90
2023-05-23T21:20:51.217Z,6.95
2023-05-23T21:23:19.395Z,7.88
2023-05-23T21:25:47.596Z,7.45
2023-05-23T21:28:15.853Z,7.43
2023-05-23T21:30:44.658Z,7.20
2023-05-23T21:33:13.072Z,7.90
2023-05-23T21:35:42.817Z,7.82
2023-05-23T21:38:11.177Z,6.95
2023-05-23T21:40:39.451Z,7.82
2023-05-23T21:43:07.702Z,7.63
2023-05-23T21:45:35.896Z,7.78
2023-05-23T21:48:04.230Z,7.55
2023-05-23T21:50:32.474Z,7.82
2023-05-23T21:53:02.025Z,8.32
2023-05-23T21:55:30.276Z,7.90
2023-05-23T21:57:58.480Z,8.02
2023-05-23T22:00:27.403Z,8.30
2023-05-23T22:02:55.673Z,7.70
2023-05-23T22:05:23.954Z,8.43
2023-05-23T22:07:52.283Z,8.07
2023-05-23T22:10:21.906Z,8.35
2023-05-23T22:12:50.102Z,8.30
2023-05-23T22:15:18.411Z,8.25
2023-05-23T22:17:46.964Z,7.78
2023-05-23T22:20:16.112Z,7.45
2023-05-23T22:22:44.426Z,7.80
2023-05-23T22:25:12.639Z,7.80
2023-05-23T22:27:42.335Z,7.68
2023-05-23T22:30:11.421Z,7.90
2023-05-23T22:32:39.701Z,7.95
2023-05-23T22:35:08.619Z,7.88
2023-05-23T22:37:36.867Z,7.10
2023-05-23T22:40:06.636Z,7.80
2023-05-23T22:42:34.878Z,7.68
2023-05-23T22:45:04.746Z,7.78
2023-05-23T22:47:33.430Z,7.75
2023-05-23T22:50:02.210Z,7.25
2023-05-23T22:52:31.231Z,7.63
2023-05-23T22:54:59.510Z,7.47
2023-05-23T22:57:27.786Z,8.90
2023-05-23T22:59:56.100Z,8.00
2023-05-23T23:02:25.956Z,8.13
2023-05-23T23:04:54.289Z,7.60
2023-05-23T23:07:22.515Z,8.27
2023-05-23T23:09:50.785Z,8.18
2023-05-23T23:12:19.090Z,7.70
2023-05-23T23:14:47.451Z,8.27
2023-05-23T23:17:16.435Z,7.88
2023-05-23T23:19:46.958Z,8.35
2023-05-23T23:22:15.166Z,8.57
2023-05-23T23:24:43.386Z,8.05
2023-05-23T23:27:11.670Z,8.05
2023-05-23T23:29:39.884Z,8.02
2023-05-23T23:32:08.388Z,7.80
2023-05-23T23:34:36.654Z,7.90
2023-05-23T23:37:06.526Z,8.60
2023-05-23T23:39:34.743Z,8.32
2023-05-23T23:42:03.552Z,8.57
2023-05-23T23:44:31.985Z,8.60
2023-05-23T23:47:00.156Z,8.63
2023-05-23T23:49:28.420Z,8.50
2023-05-23T23:51:56.661Z,7.90
2023-05-23T23:54:26.461Z,8.48
2023-05-23T23:56:54.722Z,8.40
2023-05-23T23:59:23.088Z,8.45
